Latest Weather Observations for Ngukurr AWS

IDD60801

Issued at 6:35 pm CST Thursday 27 November 2014 (issued every 30 minutes, with the page automatically refreshed every 10 minutes)

About weather observations | Map of weather stations | Latest weather observations for NT | Other Formats
Station Details ID: 014299 Name: NGUKURR AIRPORT Lat: -14.72 Lon: 134.75 Height: 14.46 m
Data from the previous 72 hours. | See also: Recent months at Ngukurr AWS
Date/Time
CST
Temp
°C
App
Temp
°C
Dew
Point
Rel
Hum
%
Delta-T
°C
Wind Press
QNH
hPa
Press
MSL
hPa
Rain
since 9 am
mm
Dir
 
Spd
km/h
Gust
km/h
Spd
kts
Gust
kts
27/06:30pm 34.1 33.6 19.0 41 9.9 E 20 30 11 16 1006.4 1006.3 0.0
27/06:00pm 35.3 33.9 18.0 36 11.3 E 22 32 12 17 1006.0 1005.9 0.0
27/05:30pm 36.4 35.0 18.0 33 12.0 E 22 32 12 17 1005.7 1005.6 0.0
27/05:00pm 37.1 35.2 17.6 31 12.7 E 24 33 13 18 1005.3 1005.2 0.0
27/04:30pm 37.2 36.3 18.2 32 12.5 ESE 20 30 11 16 1005.2 1005.1 0.0
27/04:00pm 37.7 36.9 16.1 28 13.8 NE 15 19 8 10 1005.2 1005.1 0.0
27/03:30pm 37.9 36.9 15.7 27 14.1 NE 15 24 8 13 1005.3 1005.2 0.0
27/03:00pm 39.6 38.8 15.2 23 15.5 E 13 26 7 14 1005.6 1005.5 0.0
27/02:30pm 38.9 38.0 15.9 25 14.7 E 15 24 8 13 1006.1 1006.0 0.0
27/02:00pm 38.5 38.5 16.2 27 14.3 NNE 11 19 6 10 1006.5 1006.4 0.0
27/01:30pm 37.6 36.5 15.4 27 14.1 ENE 15 26 8 14 1006.9 1006.8 0.0
27/01:00pm 37.3 37.1 15.7 27 13.7 ENE 11 26 6 14 1007.4 1007.3 0.0
27/12:30pm 38.4 36.6 15.5 26 14.6 NNE 19 46 10 25 1007.7 1007.6 0.0
27/12:00pm 37.6 37.5 16.0 28 13.8 NE 11 20 6 11 1008.3 1008.2 0.0
27/11:30am 36.9 37.4 17.5 32 12.6 ENE 11 22 6 12 1008.9 1008.8 0.0
27/11:00am 35.5 37.6 19.0 37 10.9 NE 6 11 3 6 1009.3 1009.2 0.0
27/10:30am 34.0 36.2 19.3 42 9.7 SE 6 9 3 5 1009.7 1009.6 0.0
27/10:00am 33.8 36.6 20.9 46 8.7 N 7 11 4 6 1010.1 1010.0 0.0
27/09:30am 32.1 35.3 21.6 53 7.1 N 7 13 4 7 1010.3 1010.2 0.0
27/09:00am 33.0 36.8 22.4 53 7.3 SSE 6 11 3 6 1010.3 1010.2 0.0
27/08:30am 31.6 36.1 22.3 57 6.3 NE 2 4 1 2 1010.2 1010.1 0.0
27/08:00am 30.0 34.1 22.2 63 5.3 N 4 6 2 3 1010.0 1009.9 0.0
27/07:30am 29.8 34.8 22.5 65 5.0 CALM 0 4 0 2 1010.0 1009.9 0.0
27/07:00am 28.5 32.8 22.7 71 3.9 SSE 4 6 2 3 1009.7 1009.6 0.0
27/06:30am 26.8 31.6 22.8 79 2.7 WNW 2 4 1 2 1009.4 1009.3 0.0
27/06:00am 26.0 31.0 22.5 81 2.4 CALM 0 2 0 1 1009.1 1009.0 0.0
27/05:30am 26.1 31.0 22.4 80 2.5 CALM 0 0 0 0 1008.6 1008.5 0.0
27/05:00am 26.5 31.2 22.6 79 2.6 S 2 4 1 2 1008.4 1008.3 0.0
27/04:30am 26.6 30.6 22.7 79 2.6 S 6 7 3 4 1008.4 1008.3 0.0
27/04:00am 26.8 31.3 22.2 76 3.1 NE 2 4 1 2 1007.9 1007.8 0.0
27/03:30am 27.2 32.1 22.4 75 3.2 CALM 0 4 0 2 1007.6 1007.5 0.0
27/03:00am 27.1 31.7 21.8 73 3.6 CALM 0 2 0 1 1007.6 1007.5 0.0
27/02:30am 27.5 32.1 21.8 71 3.8 CALM 0 0 0 0 1007.6 1007.5 0.0
27/02:00am 27.6 32.3 21.9 71 3.8 CALM 0 0 0 0 1007.8 1007.7 0.0
27/01:30am 27.9 32.1 21.7 69 4.2 SSE 2 4 1 2 1008.2 1008.1 0.0
27/01:00am 28.6 32.2 22.1 68 4.4 ENE 6 7 3 4 1008.3 1008.2 0.0
27/12:30am 28.8 32.4 22.1 67 4.5 ENE 6 9 3 5 1008.6 1008.5 0.0
27/12:00am 29.0 32.4 21.7 64 4.9 E 6 11 3 6 1009.1 1009.0 0.0
 
Date/Time
CST
Temp
°C
App
Temp
°C
Dew
Point
Rel
Hum
%
Delta-T
°C
Wind Press
QNH
hPa
Press
MSL
hPa
Rain
since 9 am
mm
Dir
 
Spd
km/h
Gust
km/h
Spd
kts
Gust
kts
26/11:30pm 29.0 32.2 21.2 62 5.2 E 6 7 3 4 1009.1 1009.0 0.0
26/11:00pm 29.1 32.6 21.1 62 5.3 SSE 4 4 2 2 1009.0 1008.9 0.0
26/10:30pm 29.7 32.7 20.8 58 5.9 E 6 9 3 5 1009.0 1008.9 0.0
26/10:00pm 30.0 32.8 20.5 56 6.3 E 6 9 3 5 1008.7 1008.6 0.0
26/09:30pm 30.4 33.1 20.3 54 6.7 ESE 6 11 3 6 1008.4 1008.3 0.0
26/09:00pm 30.9 33.1 19.6 51 7.4 E 7 11 4 6 1007.9 1007.8 0.0
26/08:30pm 31.1 33.3 19.1 48 7.8 E 6 9 3 5 1007.3 1007.2 0.0
26/08:00pm 31.8 32.8 18.7 45 8.5 E 11 15 6 8 1007.0 1006.9 0.0
26/07:30pm 32.3 33.2 18.5 44 9.0 E 11 15 6 8 1006.5 1006.4 0.0
26/07:00pm 32.8 33.6 18.2 42 9.4 E 11 17 6 9 1006.3 1006.2 0.0
26/06:30pm 33.3 32.6 18.6 41 9.6 E 20 28 11 15 1005.9 1005.8 0.0
26/06:00pm 34.5 33.4 17.7 37 10.9 E 20 32 11 17 1005.9 1005.8 0.0
26/05:30pm 35.4 33.7 17.1 33 11.8 E 22 33 12 18 1005.5 1005.4 0.0
26/05:00pm 36.6 34.7 16.7 30 12.8 E 22 30 12 16 1005.1 1005.0 0.0
26/04:30pm 37.6 36.2 17.1 30 13.3 ESE 20 32 11 17 1005.0 1004.9 0.0
26/04:00pm 37.7 36.3 17.1 29 13.3 E 20 39 11 21 1004.8 1004.7 0.0
26/03:30pm 37.5 36.1 17.0 30 13.3 E 20 28 11 15 1004.9 1004.8 0.0
26/03:00pm 37.8 37.3 17.7 30 13.1 E 17 28 9 15 1005.0 1004.9 0.0
26/02:30pm 37.5 36.5 17.5 30 13.0 ENE 19 28 10 15 1005.2 1005.1 0.0
26/02:00pm 38.2 39.3 17.0 28 13.7 ENE 7 26 4 14 1005.5 1005.4 0.0
26/01:30pm 36.7 35.8 16.8 30 12.8 NE 17 24 9 13 1006.2 1006.1 0.0
26/01:00pm 37.1 37.4 17.1 30 12.9 NE 11 20 6 11 1006.8 1006.7 0.0
26/12:30pm 36.5 36.1 17.1 31 12.5 ENE 15 26 8 14 1007.2 1007.1 0.0
26/12:00pm 35.0 35.2 18.6 38 10.8 E 15 26 8 14 1007.9 1007.8 0.0
26/11:30am 35.9 36.1 18.5 36 11.4 ESE 15 24 8 13 1008.3 1008.2 0.0
26/11:00am 34.5 34.9 18.1 37 10.6 NE 13 20 7 11 1008.8 1008.7 0.0
26/10:30am 34.5 35.6 18.1 37 10.7 ESE 9 19 5 10 1009.1 1009.0 0.0
26/10:00am 33.7 35.2 19.7 43 9.3 ESE 11 17 6 9 1009.3 1009.2 0.0
26/09:30am 32.6 34.9 19.8 46 8.5 ESE 7 11 4 6 1009.5 1009.4 0.0
26/09:00am 31.6 33.6 19.9 50 7.7 ESE 9 13 5 7 1009.7 1009.6 0.2
26/08:30am 30.8 33.7 20.7 55 6.7 S 6 9 3 5 1009.5 1009.4 0.2
26/08:00am 30.5 34.3 21.6 59 6.0 ESE 4 6 2 3 1009.2 1009.1 0.2
26/07:30am 29.3 33.0 21.5 63 5.2 SSE 4 7 2 4 1009.0 1008.9 0.2
26/07:00am 28.7 33.5 22.2 68 4.4 CALM 0 0 0 0 1008.6 1008.5 0.2
26/06:30am 26.6 32.3 23.7 84 2.0 CALM 0 0 0 0 1008.4 1008.3 0.2
26/06:00am 25.6 31.0 23.3 87 1.6 CALM 0 0 0 0 1008.0 1007.9 0.2
26/05:30am 25.8 31.2 23.3 86 1.7 CALM 0 0 0 0 1007.6 1007.5 0.2
26/05:00am 26.1 31.5 23.2 84 2.0 CALM 0 0 0 0 1007.3 1007.2 0.2
26/04:30am 26.5 31.5 23.2 82 2.3 ESE 2 4 1 2 1007.0 1006.9 0.2
26/04:00am 26.7 31.3 23.2 81 2.4 SE 4 4 2 2 1006.8 1006.7 0.2
26/03:30am 27.3 32.5 22.9 77 3.0 CALM 0 0 0 0 1006.8 1006.7 0.2
26/03:00am 27.5 32.4 23.1 77 3.0 NNE 2 4 1 2 1006.8 1006.7 0.2
26/02:30am 27.6 32.2 23.2 77 3.0 SE 4 7 2 4 1007.1 1007.0 0.2
26/02:00am 27.9 32.5 23.1 75 3.3 SE 4 6 2 3 1007.5 1007.4 0.2
26/01:30am 28.0 32.4 23.4 76 3.2 SE 6 7 3 4 1007.7 1007.6 0.2
26/01:00am 28.0 32.5 22.9 74 3.5 SSE 4 6 2 3 1007.8 1007.7 0.2
26/12:30am 28.4 33.2 22.9 72 3.8 ESE 2 4 1 2 1008.0 1007.9 0.2
26/12:00am 28.7 33.3 22.4 68 4.3 N 2 4 1 2 1008.4 1008.3 0.2
 
Date/Time
CST
Temp
°C
App
Temp
°C
Dew
Point
Rel
Hum
%
Delta-T
°C
Wind Press
QNH
hPa
Press
MSL
hPa
Rain
since 9 am
mm
Dir
 
Spd
km/h
Gust
km/h
Spd
kts
Gust
kts
25/11:30pm 28.9 32.8 22.6 69 4.3 NE 6 9 3 5 1008.4 1008.3 0.2
25/11:00pm 29.1 33.1 22.8 69 4.3 NE 6 7 3 4 1008.6 1008.5 0.2
25/10:30pm 29.5 32.5 22.7 67 4.6 ENE 11 20 6 11 1008.7 1008.6 0.2
25/10:00pm 29.8 33.7 23.0 67 4.7 ENE 7 11 4 6 1008.6 1008.5 0.2
25/09:30pm 29.8 33.4 23.7 70 4.2 ENE 11 15 6 8 1008.5 1008.4 0.2
25/09:00pm 30.0 33.2 23.7 69 4.4 E 13 19 7 10 1008.2 1008.1 0.2
25/08:30pm 30.1 32.3 23.3 67 4.7 E 17 22 9 12 1008.0 1007.9 0.2
25/08:00pm 30.4 33.0 23.3 66 4.9 E 15 20 8 11 1007.7 1007.6 0.2
25/07:30pm 30.6 33.0 23.0 64 5.2 ESE 15 22 8 12 1007.0 1006.9 0.2
25/07:00pm 31.3 33.0 22.3 58 6.1 E 17 26 9 14 1006.8 1006.7 0.2
25/06:30pm 31.9 32.7 21.4 53 7.1 E 19 24 10 13 1006.1 1006.0 0.2
25/06:00pm 32.4 32.2 20.6 49 7.9 E 22 33 12 18 1005.7 1005.6 0.2
25/05:30pm 33.3 33.2 20.8 48 8.4 E 22 32 12 17 1005.3 1005.2 0.2
25/05:00pm 34.5 33.9 21.2 46 9.0 E 26 35 14 19 1005.0 1004.9 0.2
25/04:30pm 35.8 35.4 20.1 40 10.5 ESE 22 32 12 17 1004.6 1004.5 0.2
25/04:00pm 36.5 36.5 19.0 35 11.6 E 17 24 9 13 1003.9 1003.8 0.2
25/03:30pm 38.1 37.5 18.5 31 13.0 NE 19 26 10 14 1004.1 1004.0 0.2
25/03:00pm 37.5 39.0 18.0 31 12.8 E 7 13 4 7 1004.5 1004.4 0.2
25/02:30pm 38.1 40.2 19.0 32 12.7 SSW 6 13 3 7 1005.0 1004.9 0.2
25/02:00pm 36.2 37.6 17.8 33 12.0 NNE 7 13 4 7 1005.9 1005.8 0.2
25/01:30pm 36.7 38.3 18.3 34 12.1 S 7 13 4 7 1006.6 1006.5 0.2
25/01:00pm 35.8 37.6 18.8 36 11.2 E 7 17 4 9 1007.4 1007.3 0.2
25/12:30pm 35.8 38.6 20.5 41 10.3 NE 6 11 3 6 1008.1 1008.0 0.2
25/12:00pm 34.7 37.0 20.6 43 9.5 E 9 19 5 10 1008.5 1008.4 0.2
25/11:30am 33.4 37.1 22.2 52 7.7 SSE 6 13 3 7 1009.0 1008.9 0.2
25/11:00am 32.8 37.4 23.2 57 6.6 WSW 4 9 2 5 1009.1 1009.0 0.2
25/10:30am 31.8 36.1 23.6 62 5.7 N 7 11 4 6 1009.3 1009.2 0.2
25/10:00am 30.4 34.9 23.6 67 4.7 W 6 11 3 6 1009.2 1009.1 0.2
25/09:30am 29.6 33.9 23.3 69 4.3 S 6 9 3 5 1009.4 1009.3 0.0
25/09:00am 29.0 33.9 24.3 76 3.3 ESE 6 11 3 6 1009.9 1009.8 4.2
25/08:30am 28.2 32.8 24.8 82 2.4 SE 9 15 5 8 1009.9 1009.8 4.2
25/08:00am 28.0 34.5 25.6 87 1.7 S 2 6 1 3 1009.5 1009.4 4.2
25/07:30am 27.6 34.4 25.6 89 1.4 CALM 0 2 0 1 1009.3 1009.2 4.2
25/07:00am 27.1 33.1 26.0 94 0.8 SE 6 9 3 5 1009.6 1009.5 4.2
25/06:30am 26.8 33.5 26.5 98 0.2 E 4 6 2 3 1009.3 1009.2 4.2
25/06:00am 26.5 32.6 26.2 98 0.2 SE 6 7 3 4 1009.1 1009.0 4.2
25/05:30am 26.5 33.0 26.2 98 0.2 ESE 4 6 2 3 1008.6 1008.5 4.2
25/05:00am 26.4 32.8 26.1 98 0.2 NE 4 6 2 3 1008.3 1008.2 4.2
25/04:30am 26.3 32.4 25.6 96 0.5 N 4 4 2 2 1007.7 1007.6 4.2
25/04:00am 26.1 32.8 25.4 96 0.5 CALM 0 4 0 2 1007.7 1007.6 4.2
25/03:30am 25.8 30.6 25.1 96 0.5 NW 9 15 5 8 1007.6 1007.5 4.0
25/03:00am 26.8 33.1 24.8 89 1.4 CALM 0 4 0 2 1008.5 1008.4 1.6
25/02:30am 27.0 31.8 24.1 84 2.0 ESE 6 11 3 6 1008.7 1008.6 1.4
25/02:00am 27.5 31.9 23.5 79 2.7 NNE 6 7 3 4 1008.2 1008.1 1.2
25/01:30am 27.1 30.6 23.6 81 2.4 N 11 15 6 8 1008.3 1008.2 1.2
25/01:00am 28.1 31.3 23.0 74 3.5 NNE 11 19 6 10 1008.8 1008.7 1.2
25/12:30am 28.7 31.1 23.6 74 3.5 ENE 17 22 9 12 1008.9 1008.8 1.2
25/12:00am 29.1 34.3 25.1 79 2.8 E 7 11 4 6 1008.9 1008.8 1.2
 
Date/Time
CST
Temp
°C
App
Temp
°C
Dew
Point
Rel
Hum
%
Delta-T
°C
Wind Press
QNH
hPa
Press
MSL
hPa
Rain
since 9 am
mm
Dir
 
Spd
km/h
Gust
km/h
Spd
kts
Gust
kts
24/11:30pm 28.9 34.9 26.3 86 1.9 E 7 11 4 6 1009.3 1009.2 1.2
24/11:00pm 28.1 34.5 26.1 89 1.4 NE 4 4 2 2 1009.4 1009.3 1.2
24/10:30pm 27.6 33.8 25.2 87 1.7 ENE 2 6 1 3 1009.5 1009.4 1.2
24/10:00pm 27.2 32.2 24.8 87 1.7 SE 7 11 4 6 1009.4 1009.3 1.2
24/09:30pm 28.1 29.3 23.2 74 3.4 SE 22 37 12 20 1009.9 1009.8 0.8
24/09:00pm 31.5 34.0 21.7 56 6.6 E 11 19 6 10 1009.0 1008.9 0.6
24/08:30pm 31.5 35.7 21.7 56 6.6 NNE 2 4 1 2 1008.4 1008.3 0.6
24/08:00pm 31.9 35.3 21.7 54 6.9 NNE 6 9 3 5 1007.9 1007.8 0.6
24/07:30pm 32.1 35.1 21.9 54 6.9 ESE 9 15 5 8 1007.4 1007.3 0.6
24/07:00pm 30.9 35.6 23.3 64 5.2 E 4 11 2 6 1006.8 1006.7 0.6

Other Formats:

Comma delimited format used in spreadsheet applications
http://www.bom.gov.au/fwo/IDD60801/IDD60801.94106.axf

JavaScript Object Notation format (JSON) in row-major order
http://www.bom.gov.au/fwo/IDD60801/IDD60801.94106.json